FSIA Airport Information

Runway Information
Runway 13 Length 9800 ft width 151 ft
Elevation 10 ft Threshold 1000 ft Heading 125
Runway 31 Length 9800 ft Width 151 ft
Elevation 10 ft Threshold 1000 ft Heading 305
Airport Frequencies
Type APP Name APP Frequency 119.7 MHZ
Type TWR Name TWR Frequency 118.3 MHZ
Airport Navaids
Type VOR-DME Name Seychelles Frequency 113100 KHZ
Type NDB Name Seychelles Frequency 373 KHZ
Airport Weather Information & NOTAM
ADDS - METARS form results

(0947 UTC 26 May 2018)
 
METAR text: FSIA 260900Z 11012KT 9999 R13///// SCT016 30/25 Q1009 NOSIG
Conditions at: FSIA (SEYCHELLES INTL , SC) observed 0900 UTC 26 May 2018
Temperature: 30.0°C (86°F)
Dewpoint: 25.0°C (77°F) [RH = 75%]
Pressure (altimeter): 29.79 inches Hg (1009.0 mb)
Winds: from the ESE (110 degrees) at 14 MPH (12 knots; 6.2 m/s)
Visibility: 6 or more miles (10+ km)
Ceiling: at least 12,000 feet AGL
Clouds: scattered clouds at 1600 feet AGL
Weather: no significant weather observed at this time